Time;durP1;ratioP1;P1;durP2;ratioP2;P2;SDS_P1;SDS_P2;PMS_P1;PMS_P2;Temp;Humidity;BMP_temperature;BMP_pressure;BME280_temperature;BME280_humidity;BME280_pressure;Samples;Min_cycle;Max_cycle;Signal;HPM_P1;HPM_P2
2021/12/25 00:02:49;;;;;;;17.40;8.77;;;;;;;1.90;97.81;100662.25;10461882;28;20041;-80
2021/12/25 00:07:51;;;;;;;16.45;9.10;;;;;;;1.80;97.31;100660.00;10478551;28;20047;-81
2021/12/25 00:12:54;;;;;;;20.73;10.95;;;;;;;1.65;97.47;100664.19;10479048;28;20135;-80
2021/12/25 00:17:56;;;;;;;16.10;9.43;;;;;;;1.40;97.85;100667.84;10459962;28;20046;-81
2021/12/25 00:23:00;;;;;;;25.45;10.55;;;;;;;1.22;97.72;100672.69;10478396;28;20037;-80
2021/12/25 00:34:05;;;;;;;22.20;11.07;;;;;;;1.09;97.47;100673.59;10471703;28;20045;-81
2021/12/25 00:38:44;;;;;;;19.40;10.98;;;;;;;1.06;97.33;100678.53;10467819;28;20045;-80
2021/12/25 00:43:48;;;;;;;22.92;11.80;;;;;;;0.98;97.42;100692.41;10458448;28;20474;-80
2021/12/25 00:48:49;;;;;;;24.10;12.45;;;;;;;0.92;97.14;100696.31;10460467;28;20044;-82
2021/12/25 00:53:51;;;;;;;22.48;13.07;;;;;;;0.78;97.57;100697.13;10476355;28;20044;-81
2021/12/25 00:58:53;;;;;;;23.48;12.20;;;;;;;0.76;97.47;100696.16;10478616;28;20056;-81
2021/12/25 01:03:55;;;;;;;28.00;12.93;;;;;;;0.77;97.43;100697.91;10468569;28;20059;-80
2021/12/25 01:08:57;;;;;;;28.30;13.80;;;;;;;0.72;97.31;100699.25;10459846;28;20042;-81
2021/12/25 01:14:09;;;;;;;27.15;13.65;;;;;;;0.70;97.68;100701.72;10457386;28;20466;-80
2021/12/25 01:25:03;;;;;;;25.15;12.50;;;;;;;0.56;97.05;100718.56;10493001;28;20045;-81
2021/12/25 01:30:12;;;;;;;26.58;14.82;;;;;;;0.51;97.33;100730.09;10484320;28;20426;-81
2021/12/25 01:52:03;;;;;;;30.73;14.63;;;;;;;0.45;96.90;100727.16;10476428;28;20124;-84
2021/12/25 01:57:06;;;;;;;30.83;15.02;;;;;;;0.49;97.35;100725.72;10479214;28;20488;-84
2021/12/25 02:02:07;;;;;;;31.50;15.18;;;;;;;0.47;97.36;100725.63;10477969;28;20488;-84
2021/12/25 02:07:10;;;;;;;26.55;14.20;;;;;;;0.44;97.00;100721.25;10478643;28;20040;-84
2021/12/25 02:12:14;;;;;;;27.63;14.88;;;;;;;0.39;97.21;100716.66;10436995;28;20514;-84
2021/12/25 02:17:26;;;;;;;35.28;16.33;;;;;;;0.38;97.43;100718.28;10462268;28;20503;-83
2021/12/25 02:22:33;;;;;;;30.15;13.07;;;;;;;0.27;96.71;100712.53;10462437;28;20068;-84
2021/12/25 02:28:05;;;;;;;33.10;14.35;;;;;;;0.23;96.95;100715.66;10452631;28;20132;-83
2021/12/25 02:33:09;;;;;;;34.38;14.35;;;;;;;0.13;97.13;100706.59;10492517;28;20048;-83
2021/12/25 02:38:11;;;;;;;32.20;13.07;;;;;;;0.03;96.74;100723.63;10495294;28;20135;-83
2021/12/25 02:43:20;;;;;;;29.52;12.45;;;;;;;-0.14;96.88;100725.94;10487603;28;20495;-83
2021/12/25 02:48:23;;;;;;;25.92;10.65;;;;;;;-0.27;97.09;100718.31;10485353;28;20071;-83
2021/12/25 02:53:25;;;;;;;32.65;11.05;;;;;;;-0.27;96.88;100733.50;10468895;28;20068;-80
2021/12/25 02:58:28;;;;;;;22.90;9.95;;;;;;;-0.38;96.80;100731.09;10497103;28;20037;-80
2021/12/25 03:03:30;;;;;;;23.20;9.65;;;;;;;-0.44;97.01;100730.69;10462282;28;20044;-80
2021/12/25 03:08:32;;;;;;;19.80;9.40;;;;;;;-0.50;96.73;100725.22;10482078;28;20464;-80
2021/12/25 03:13:45;;;;;;;27.15;9.48;;;;;;;-0.49;96.50;100730.38;10475376;28;20136;-80
2021/12/25 03:18:55;;;;;;;18.13;9.63;;;;;;;-0.47;96.58;100720.34;10474657;28;20033;-81
2021/12/25 03:23:58;;;;;;;22.77;9.75;;;;;;;-0.51;96.83;100719.28;10480919;28;20127;-80
2021/12/25 03:29:03;;;;;;;18.75;8.95;;;;;;;-0.54;96.69;100725.78;10469113;28;20426;-80
2021/12/25 03:34:05;;;;;;;21.30;9.50;;;;;;;-0.54;96.77;100728.31;10476694;28;20143;-81
2021/12/25 03:39:10;;;;;;;19.40;7.72;;;;;;;-0.57;96.44;100736.56;10489334;28;20106;-81
2021/12/25 03:44:12;;;;;;;18.95;8.82;;;;;;;-0.62;96.20;100739.56;10479751;28;20052;-81
2021/12/25 03:49:26;;;;;;;16.17;7.97;;;;;;;-0.60;96.50;100728.78;10479772;28;20068;-80
2021/12/25 03:59:58;;;;;;;16.23;7.95;;;;;;;-0.69;95.96;100749.28;10479320;28;20047;-81
2021/12/25 04:05:02;;;;;;;22.98;7.78;;;;;;;-0.75;96.06;100743.78;10484382;28;20037;-81
2021/12/25 04:10:08;;;;;;;14.77;7.90;;;;;;;-0.82;95.67;100746.66;10488796;28;20086;-81
2021/12/25 04:15:10;;;;;;;13.32;4.95;;;;;;;-0.94;94.65;100750.91;10477250;28;20094;-81
2021/12/25 04:20:12;;;;;;;11.88;4.65;;;;;;;-1.17;93.79;100753.56;10482365;28;20062;-80
2021/12/25 04:25:20;;;;;;;7.75;3.83;;;;;;;-1.28;93.02;100769.63;10475212;28;20503;-81
2021/12/25 04:30:37;;;;;;;6.63;3.50;;;;;;;-1.31;92.96;100765.22;10474883;28;20505;-82
2021/12/25 05:03:38;;;;;;;7.28;3.10;;;;;;;-1.88;91.58;100809.09;10483316;28;20094;-81
2021/12/25 05:08:22;;;;;;;4.80;2.95;;;;;;;-1.92;91.57;100808.00;10459321;28;20587;-81
2021/12/25 05:13:24;;;;;;;6.03;2.55;;;;;;;-1.94;91.81;100808.66;10443350;28;20518;-81
2021/12/25 05:18:26;;;;;;;8.93;3.15;;;;;;;-1.93;91.83;100811.28;10480896;28;20064;-81
2021/12/25 05:23:28;;;;;;;6.10;3.38;;;;;;;-1.96;90.82;100821.13;10473667;28;20036;-80
2021/12/25 05:28:39;;;;;;;7.18;3.33;;;;;;;-1.96;91.02;100821.13;10472170;28;20091;-81
2021/12/25 05:33:42;;;;;;;5.18;3.25;;;;;;;-1.94;90.92;100824.66;10461985;28;20415;-81
2021/12/25 05:38:59;;;;;;;7.00;4.13;;;;;;;-1.95;91.54;100824.56;10473843;28;20040;-81
2021/12/25 05:44:07;;;;;;;5.45;3.63;;;;;;;-2.00;91.16;100825.84;10479457;28;20037;-80
2021/12/25 05:49:24;;;;;;;6.95;4.05;;;;;;;-2.06;90.52;100836.38;10479545;28;20040;-80
2021/12/25 05:54:36;;;;;;;10.52;3.78;;;;;;;-2.04;90.13;100842.41;10478857;28;20450;-81
2021/12/25 05:59:51;;;;;;;7.60;3.80;;;;;;;-2.06;90.01;100854.06;10495564;28;20044;-80
2021/12/25 06:05:14;;;;;;;6.88;3.72;;;;;;;-2.05;89.98;100860.88;10495981;28;20045;-81
2021/12/25 06:10:16;;;;;;;7.18;3.97;;;;;;;-2.14;88.98;100857.63;10469774;28;20131;-80
2021/12/25 06:15:19;;;;;;;6.18;3.90;;;;;;;-2.19;89.05;100866.47;10466653;28;20036;-80
2021/12/25 06:20:25;;;;;;;7.25;3.47;;;;;;;-2.28;88.50;100862.50;10488767;28;20052;-79
2021/12/25 06:25:36;;;;;;;4.60;3.13;;;;;;;-2.35;88.84;100879.56;10476831;28;20041;-79
2021/12/25 06:30:58;;;;;;;4.68;3.03;;;;;;;-2.41;88.62;100864.81;10446249;28;20526;-78
2021/12/25 06:36:23;;;;;;;8.30;3.78;;;;;;;-2.47;88.24;100879.50;10480883;28;20049;-78
2021/12/25 06:41:35;;;;;;;6.28;3.88;;;;;;;-2.47;89.29;100882.03;10502358;28;20049;-80
2021/12/25 06:46:39;;;;;;;5.75;3.25;;;;;;;-2.55;89.45;100887.34;10471248;28;20399;-79
2021/12/25 06:51:41;;;;;;;6.30;3.60;;;;;;;-2.64;88.45;100891.66;10470615;28;20044;-79
2021/12/25 06:57:01;;;;;;;6.95;3.35;;;;;;;-2.71;88.32;100899.50;10503713;28;20036;-79
2021/12/25 07:02:03;;;;;;;5.53;3.45;;;;;;;-2.74;88.94;100904.31;10487488;28;20072;-80
2021/12/25 07:07:37;;;;;;;6.85;3.65;;;;;;;-2.80;89.08;100908.88;10460343;28;20377;-79
2021/12/25 07:12:58;;;;;;;8.27;4.30;;;;;;;-2.88;88.08;100919.25;10504990;28;20052;-78
2021/12/25 07:18:10;;;;;;;5.90;3.42;;;;;;;-2.90;88.63;100915.72;10506878;28;20063;-79
2021/12/25 07:23:32;;;;;;;7.82;4.22;;;;;;;-3.02;89.06;100922.31;10493351;28;20052;-78
2021/12/25 07:28:44;;;;;;;5.60;3.38;;;;;;;-3.13;88.62;100923.97;10506137;28;20051;-78
2021/12/25 07:33:48;;;;;;;9.13;3.95;;;;;;;-3.16;88.21;100927.88;10489702;28;20052;-79
2021/12/25 07:38:50;;;;;;;6.35;3.33;;;;;;;-3.27;88.60;100939.56;10509905;28;20044;-78
2021/12/25 07:43:52;;;;;;;3.17;2.15;;;;;;;-3.41;87.94;100946.00;10508679;28;20048;-77
2021/12/25 07:49:07;;;;;;;3.95;2.45;;;;;;;-3.46;88.38;100963.25;10496174;28;20040;-79
2021/12/25 07:54:09;;;;;;;5.50;2.10;;;;;;;-3.58;88.33;100950.53;10512916;28;20048;-79
2021/12/25 07:59:11;;;;;;;5.00;2.30;;;;;;;-3.67;87.64;100963.22;10480238;28;20139;-78
2021/12/25 08:04:13;;;;;;;4.05;1.85;;;;;;;-3.74;87.46;100971.03;10509378;28;20062;-78
2021/12/25 08:09:23;;;;;;;2.67;1.63;;;;;;;-3.77;87.20;100973.28;10512993;28;20055;-78
2021/12/25 08:15:28;;;;;;;4.85;1.55;;;;;;;-3.83;87.10;100980.31;10515725;28;20041;-78
2021/12/25 08:20:34;;;;;;;3.70;1.42;;;;;;;-3.89;86.92;100979.81;10514994;28;20040;-78
2021/12/25 08:25:54;;;;;;;2.25;1.42;;;;;;;-3.89;87.02;100977.28;10513658;28;20049;-79
2021/12/25 08:31:21;;;;;;;2.45;1.42;;;;;;;-3.90;87.40;100986.44;10516085;28;20507;-78
2021/12/25 08:36:52;;;;;;;3.50;1.25;;;;;;;-3.91;87.17;100989.72;10506226;28;20044;-79
2021/12/25 08:42:01;;;;;;;1.80;1.10;;;;;;;-3.88;87.06;100997.53;10499168;28;20044;-80
2021/12/25 08:47:05;;;;;;;2.15;1.33;;;;;;;-3.89;86.53;100995.78;10490217;28;20049;-79
2021/12/25 08:52:11;;;;;;;3.15;1.27;;;;;;;-3.87;86.32;101003.47;10482757;28;20044;-79
2021/12/25 08:58:06;;;;;;;2.40;1.05;;;;;;;-3.88;85.82;101011.78;10487361;28;20040;-78
2021/12/25 09:03:12;;;;;;;3.38;1.10;;;;;;;-3.79;85.51;101021.72;10494586;28;20041;-79
2021/12/25 09:08:13;;;;;;;6.50;1.35;;;;;;;-3.67;83.27;101026.19;10506350;28;20066;-79
2021/12/25 09:13:15;;;;;;;3.25;1.00;;;;;;;-3.61;81.99;101028.31;10506025;28;20060;-80
2021/12/25 09:18:17;;;;;;;2.72;1.38;;;;;;;-3.44;82.36;101036.41;10480662;28;20040;-79
2021/12/25 09:23:19;;;;;;;3.25;0.90;;;;;;;-3.47;80.24;101038.69;10499610;28;20514;-79
2021/12/25 09:28:21;;;;;;;0.95;0.47;;;;;;;-3.39;77.46;101041.09;10499844;28;20052;-79
2021/12/25 09:33:22;;;;;;;0.85;0.65;;;;;;;-3.37;77.31;101051.31;10485774;28;20039;-78
2021/12/25 09:38:39;;;;;;;1.27;0.93;;;;;;;-3.29;75.71;101047.78;10517920;28;20036;-78
2021/12/25 09:43:41;;;;;;;2.45;0.90;;;;;;;-3.25;75.88;101048.94;10478276;28;20133;-79
2021/12/25 09:48:43;;;;;;;3.28;0.80;;;;;;;-3.17;75.58;101049.59;10501480;28;20450;-78
2021/12/25 09:53:59;;;;;;;2.08;0.90;;;;;;;-3.12;75.59;101055.88;10502213;28;20048;-79
2021/12/25 09:59:03;;;;;;;1.20;0.75;;;;;;;-3.11;74.63;101062.69;10488134;28;20040;-79
2021/12/25 10:04:13;;;;;;;2.95;1.08;;;;;;;-3.03;74.72;101061.69;10503217;28;20036;-80
2021/12/25 10:09:18;;;;;;;1.65;0.70;;;;;;;-2.98;73.01;101055.38;10488081;28;20047;-78
2021/12/25 10:14:20;;;;;;;3.05;1.13;;;;;;;-2.85;74.34;101067.38;10472001;28;20048;-79
2021/12/25 10:19:27;;;;;;;1.30;0.80;;;;;;;-2.78;73.66;101063.69;10506937;28;20036;-79
2021/12/25 10:24:38;;;;;;;1.80;0.53;;;;;;;-2.74;70.90;101068.25;10472205;28;20144;-79
2021/12/25 10:29:41;;;;;;;1.20;0.68;;;;;;;-2.75;72.58;101064.81;10488138;28;20050;-79
2021/12/25 10:34:42;;;;;;;5.78;1.25;;;;;;;-2.65;71.59;101070.63;10470505;28;20048;-79
2021/12/25 10:39:45;;;;;;;1.67;0.73;;;;;;;-2.62;70.68;101069.25;10470040;28;20045;-80
2021/12/25 10:44:57;;;;;;;1.35;0.60;;;;;;;-2.55;70.17;101066.47;10472334;28;20052;-80
2021/12/25 10:50:09;;;;;;;1.30;0.60;;;;;;;-2.44;67.73;101061.41;10501962;28;20044;-80
2021/12/25 10:55:23;;;;;;;2.00;0.70;;;;;;;-2.24;65.60;101056.31;10462462;28;20076;-79
2021/12/25 11:00:31;;;;;;;2.50;0.75;;;;;;;-1.95;66.72;101059.38;10489886;28;20098;-79
2021/12/25 11:05:47;;;;;;;1.38;0.75;;;;;;;-1.92;66.44;101045.34;10505511;28;20037;-79
2021/12/25 11:10:53;;;;;;;1.73;0.75;;;;;;;-1.78;65.66;101040.50;10481249;28;20044;-79
2021/12/25 11:16:05;;;;;;;0.40;0.40;;;;;;;-1.75;66.50;101023.06;10476204;28;20052;-79
2021/12/25 11:21:10;;;;;;;2.75;0.70;;;;;;;-1.50;65.56;101035.94;10461119;28;20119;-79
2021/12/25 11:26:14;;;;;;;1.30;0.82;;;;;;;-1.31;66.07;101018.00;10504670;28;20044;-79
2021/12/25 11:31:15;;;;;;;3.13;0.88;;;;;;;-1.09;66.00;101024.66;10503521;28;20754;-79
2021/12/25 11:36:18;;;;;;;2.08;0.80;;;;;;;-0.97;66.50;101025.56;10487623;28;20098;-80
2021/12/25 11:41:25;;;;;;;3.42;0.60;;;;;;;-0.98;63.95;101021.28;10489095;28;20044;-80
2021/12/25 11:46:39;;;;;;;2.35;0.98;;;;;;;-0.75;62.93;101022.09;10486538;28;20052;-80
2021/12/25 11:51:43;;;;;;;2.90;0.82;;;;;;;-0.73;61.66;101012.06;10486789;28;20076;-81
2021/12/25 11:57:09;;;;;;;3.53;0.80;;;;;;;-0.61;61.36;101014.63;10489238;28;20040;-81
2021/12/25 12:02:11;;;;;;;3.85;1.05;;;;;;;-0.14;62.45;101008.66;10499875;28;20487;-81
2021/12/25 12:07:18;;;;;;;3.03;0.82;;;;;;;-0.38;60.36;101007.03;10503394;28;20036;-80
2021/12/25 12:12:40;;;;;;;0.88;0.68;;;;;;;-0.63;58.47;101006.06;10490455;28;20051;-81
2021/12/25 12:18:25;;;;;;;1.95;0.50;;;;;;;-0.44;58.53;101009.13;10483675;28;20488;-79
2021/12/25 12:24:21;;;;;;;0.50;0.32;;;;;;;-0.41;59.40;101005.94;10476855;28;20048;-80
2021/12/25 12:29:38;;;;;;;0.55;0.30;;;;;;;-0.46;58.57;100990.41;10494920;28;20066;-80
2021/12/25 12:34:40;;;;;;;2.10;0.60;;;;;;;-0.14;59.10;100988.41;10481935;28;20392;-80
2021/12/25 12:45:20;;;;;;;1.23;0.52;;;;;;;-0.26;58.20;100998.56;10498716;28;20048;-79
2021/12/25 12:50:31;;;;;;;3.13;0.70;;;;;;;-0.40;58.64;101005.16;10477737;28;20044;-80
2021/12/25 12:55:35;;;;;;;1.50;0.70;;;;;;;0.06;58.85;101013.50;10465837;28;20135;-80
2021/12/25 13:00:38;;;;;;;2.58;0.70;;;;;;;-0.28;56.80;101023.75;10484413;28;20411;-81
2021/12/25 13:05:51;;;;;;;1.85;0.75;;;;;;;-0.03;59.00;101022.97;10495546;28;20048;-80
2021/12/25 13:11:02;;;;;;;3.95;1.00;;;;;;;-0.11;57.50;101030.00;10458583;28;20044;-80
2021/12/25 13:16:10;;;;;;;1.73;0.82;;;;;;;-0.21;55.59;101042.81;10453976;28;20036;-80
2021/12/25 13:21:14;;;;;;;1.83;0.80;;;;;;;0.05;56.22;101026.03;10472345;28;20499;-81
2021/12/25 13:26:46;;;;;;;2.33;0.73;;;;;;;-0.18;54.54;101028.72;10475746;28;20553;-81
2021/12/25 13:31:48;;;;;;;1.60;0.75;;;;;;;-0.18;54.23;101030.34;10481834;28;20052;-80
2021/12/25 13:36:55;;;;;;;3.38;0.70;;;;;;;-0.21;54.94;101032.69;10478175;28;20036;-82
2021/12/25 13:42:08;;;;;;;1.73;0.80;;;;;;;-0.43;56.47;101033.69;10487035;28;20032;-81
2021/12/25 13:47:24;;;;;;;1.88;0.70;;;;;;;-0.67;57.58;101038.72;10490075;28;20051;-81
2021/12/25 13:52:28;;;;;;;;;;;;;;;-0.73;57.18;101033.22;10448637;28;20048;-81
2021/12/25 13:57:30;;;;;;;1.83;0.88;;;;;;;-0.96;57.29;101037.44;10443321;28;19920;-81
2021/12/25 14:02:32;;;;;;;1.60;0.90;;;;;;;-1.16;58.60;101047.72;10466014;28;20078;-81
2021/12/25 14:07:36;;;;;;;2.30;1.15;;;;;;;-1.35;60.66;101051.38;10463632;28;20033;-81
2021/12/25 14:12:41;;;;;;;2.30;0.80;;;;;;;-1.57;59.90;101055.53;10476276;28;20044;-80
2021/12/25 14:17:44;;;;;;;1.63;0.88;;;;;;;-1.73;59.76;101051.84;10477769;28;20033;-80
2021/12/25 14:22:50;;;;;;;4.95;1.13;;;;;;;-1.84;59.63;101047.59;10458132;28;20530;-80
2021/12/25 14:28:05;;;;;;;1.13;0.75;;;;;;;-1.98;61.04;101054.97;10469273;28;20037;-80
2021/12/25 14:33:13;;;;;;;5.40;1.10;;;;;;;-2.14;62.64;101052.88;10465268;28;20070;-80
2021/12/25 14:38:15;;;;;;;1.75;0.82;;;;;;;-2.27;63.52;101045.97;10487226;28;20041;-80
2021/12/25 14:43:29;;;;;;;2.20;0.98;;;;;;;-2.32;62.19;101054.81;10481491;28;20330;-80
2021/12/25 14:48:40;;;;;;;2.53;1.05;;;;;;;-2.43;61.33;101053.09;10494425;28;20036;-79
2021/12/25 14:53:47;;;;;;;3.45;1.17;;;;;;;-2.53;62.07;101055.63;10471672;28;20070;-79
2021/12/25 14:59:17;;;;;;;2.17;0.90;;;;;;;-2.61;62.54;101048.31;10465281;28;20044;-79
2021/12/25 15:04:27;;;;;;;3.88;1.05;;;;;;;-2.71;62.15;101056.78;10461407;28;20071;-79
2021/12/25 15:09:35;;;;;;;1.67;1.00;;;;;;;-2.80;62.97;101060.19;10454813;28;20688;-79
2021/12/25 15:14:42;;;;;;;1.60;0.68;;;;;;;-2.82;60.66;101056.66;10466850;28;20454;-80
2021/12/25 15:19:46;;;;;;;1.98;0.88;;;;;;;-2.95;61.09;101053.13;10454023;28;20400;-78
2021/12/25 15:24:57;;;;;;;3.13;0.88;;;;;;;-3.06;61.34;101051.34;10482090;28;20059;-79
2021/12/25 15:30:10;;;;;;;3.25;1.23;;;;;;;-3.18;62.07;101051.19;10459958;28;20041;-79
2021/12/25 15:35:44;;;;;;;3.88;1.02;;;;;;;-3.28;62.75;101051.22;10479718;28;20470;-78
2021/12/25 15:40:53;;;;;;;1.15;0.50;;;;;;;-3.30;61.48;101051.06;10503424;28;20114;-79
2021/12/25 15:46:01;;;;;;;2.42;0.88;;;;;;;-3.30;60.80;101056.09;10501121;28;20045;-79
2021/12/25 15:51:07;;;;;;;3.20;1.45;;;;;;;-3.41;60.67;101067.78;10509103;28;20484;-79
2021/12/25 15:56:09;;;;;;;4.55;1.35;;;;;;;-3.56;63.07;101064.88;10513698;28;20050;-79
2021/12/25 16:01:13;;;;;;;1.33;0.82;;;;;;;-3.67;63.47;101073.13;10464797;28;20047;-78
2021/12/25 16:06:15;;;;;;;1.95;0.80;;;;;;;-3.71;63.76;101082.06;10486529;28;20104;-79
2021/12/25 16:11:17;;;;;;;3.85;1.48;;;;;;;-3.76;63.60;101078.28;10510731;28;20046;-78
2021/12/25 16:16:20;;;;;;;5.03;1.25;;;;;;;-3.86;64.54;101085.78;10470519;28;20101;-78
2021/12/25 16:21:22;;;;;;;2.53;1.23;;;;;;;-3.93;64.31;101096.97;10495051;28;20055;-78
2021/12/25 16:26:27;;;;;;;5.78;1.30;;;;;;;-4.00;64.76;101097.19;10498366;28;20039;-79
2021/12/25 16:31:34;;;;;;;6.65;1.27;;;;;;;-3.98;63.84;101103.19;10501866;28;20041;-78
2021/12/25 16:36:39;;;;;;;3.10;1.10;;;;;;;-4.04;63.58;101105.19;10504402;28;20048;-79
2021/12/25 16:41:44;;;;;;;1.60;0.95;;;;;;;-4.03;63.43;101096.91;10463595;28;20044;-78
2021/12/25 16:46:50;;;;;;;4.85;1.02;;;;;;;-4.11;64.29;101107.91;10480748;28;20044;-79
2021/12/25 16:51:54;;;;;;;2.72;1.30;;;;;;;-4.04;63.20;101110.22;10499864;28;20381;-79
2021/12/25 16:56:56;;;;;;;2.17;1.00;;;;;;;-4.08;62.86;101103.16;10476015;28;20049;-80
2021/12/25 17:01:58;;;;;;;1.45;0.77;;;;;;;-4.19;64.19;101100.59;10504717;28;20090;-78
2021/12/25 17:07:00;;;;;;;2.55;1.20;;;;;;;-4.30;64.23;101102.16;10488931;28;20093;-79
2021/12/25 17:12:03;;;;;;;6.13;1.10;;;;;;;-4.24;63.19;101106.84;10474988;28;20052;-78
2021/12/25 17:17:33;;;;;;;3.92;1.48;;;;;;;-4.28;63.33;101114.84;10467754;28;20396;-78
2021/12/25 17:22:34;;;;;;;4.20;1.20;;;;;;;-4.38;64.66;101112.28;10477886;28;20043;-78
2021/12/25 17:27:36;;;;;;;3.15;1.02;;;;;;;-4.49;65.57;101119.75;10490477;28;20051;-78
2021/12/25 17:32:38;;;;;;;0.57;0.57;;;;;;;-4.43;65.08;101123.59;10449035;28;20056;-80
2021/12/25 17:37:39;;;;;;;3.85;1.48;;;;;;;-4.54;65.41;101120.97;10467039;28;20049;-80
2021/12/25 17:42:43;;;;;;;5.05;1.38;;;;;;;-4.71;66.69;101119.47;10464881;28;20045;-79
2021/12/25 17:47:45;;;;;;;2.85;1.13;;;;;;;-4.71;66.57;101126.09;10478118;28;20385;-80
2021/12/25 17:52:47;;;;;;;1.70;1.00;;;;;;;-4.75;66.95;101124.94;10471075;28;20575;-79
2021/12/25 17:57:49;;;;;;;2.25;0.95;;;;;;;-4.72;66.26;101114.28;10465030;28;20040;-80
2021/12/25 18:02:51;;;;;;;3.97;1.35;;;;;;;-4.82;66.85;101115.97;10489221;28;20040;-79
2021/12/25 18:07:55;;;;;;;2.90;1.23;;;;;;;-4.83;67.26;101118.31;10463424;28;20121;-79
2021/12/25 18:12:58;;;;;;;3.97;1.30;;;;;;;-4.84;67.24;101121.63;10483076;28;20052;-79
2021/12/25 18:18:02;;;;;;;6.30;1.50;;;;;;;-4.85;67.03;101119.84;10460903;28;20055;-80
2021/12/25 18:23:11;;;;;;;4.55;1.13;;;;;;;-4.93;68.36;101124.16;10455053;28;20056;-78
2021/12/25 18:28:14;;;;;;;2.67;1.40;;;;;;;-5.02;68.83;101125.81;10466283;28;20083;-79
2021/12/25 18:33:16;;;;;;;3.33;1.10;;;;;;;-5.00;68.11;101121.81;10447663;28;20049;-79
2021/12/25 18:38:18;;;;;;;2.08;1.13;;;;;;;-5.08;70.05;101116.09;10446829;28;20048;-78
2021/12/25 18:43:21;;;;;;;4.28;1.58;;;;;;;-5.11;69.33;101121.75;10480904;28;20473;-80
2021/12/25 18:48:24;;;;;;;3.97;1.23;;;;;;;-5.14;69.12;101123.09;10472766;28;20052;-78
2021/12/25 18:53:27;;;;;;;5.88;1.42;;;;;;;-5.20;69.45;101125.91;10482855;28;20041;-79
2021/12/25 18:58:29;;;;;;;2.95;1.48;;;;;;;-5.22;69.47;101109.81;10465316;28;20049;-78
2021/12/25 19:03:30;;;;;;;2.72;1.33;;;;;;;-5.20;69.25;101108.31;10458735;28;20109;-78
2021/12/25 19:08:34;;;;;;;3.40;1.52;;;;;;;-5.12;69.02;101117.47;10459854;28;20463;-78
2021/12/25 19:13:39;;;;;;;2.50;1.30;;;;;;;-5.14;68.01;101121.44;10465143;28;20482;-78
2021/12/25 19:18:41;;;;;;;4.75;1.60;;;;;;;-5.24;69.23;101116.31;10466573;28;20041;-78
2021/12/25 19:23:43;;;;;;;4.05;1.67;;;;;;;-5.31;70.16;101108.94;10475111;28;20507;-77
2021/12/25 19:28:44;;;;;;;4.90;1.65;;;;;;;-5.11;68.40;101103.25;10458238;28;20037;-79
2021/12/25 19:33:46;;;;;;;6.57;1.60;;;;;;;-5.22;68.86;101104.78;10457915;28;20045;-79
2021/12/25 19:38:47;;;;;;;6.93;1.60;;;;;;;-5.21;68.49;101105.69;10475772;28;20048;-79
2021/12/25 19:43:50;;;;;;;3.78;1.42;;;;;;;-5.21;68.11;101103.16;10482082;28;20487;-78
2021/12/25 19:48:58;;;;;;;4.68;2.00;;;;;;;-5.22;68.40;101091.34;10478122;28;20048;-78
2021/12/25 19:54:00;;;;;;;3.15;1.80;;;;;;;-5.31;69.36;101091.38;10478101;28;20045;-79
2021/12/25 19:59:03;;;;;;;4.32;1.65;;;;;;;-5.37;68.84;101091.72;10483245;28;20053;-78
2021/12/25 20:04:04;;;;;;;5.22;2.00;;;;;;;-5.36;69.12;101105.13;10471738;28;20052;-77
2021/12/25 20:09:06;;;;;;;3.45;1.70;;;;;;;-5.39;69.26;101104.84;10466112;28;20044;-78
2021/12/25 20:14:08;;;;;;;3.33;1.40;;;;;;;-5.47;70.03;101111.66;10477882;28;20060;-78
2021/12/25 20:19:11;;;;;;;5.43;1.60;;;;;;;-5.40;69.31;101098.06;10476530;28;20395;-77
2021/12/25 20:24:13;;;;;;;4.30;1.77;;;;;;;-5.45;68.99;101080.06;10474618;28;20051;-78
2021/12/25 20:29:17;;;;;;;3.97;1.70;;;;;;;-5.49;68.98;101088.94;10483125;28;20136;-78
2021/12/25 20:34:19;;;;;;;2.97;1.40;;;;;;;-5.49;68.01;101088.94;10471107;28;20055;-78
2021/12/25 20:39:21;;;;;;;10.63;1.92;;;;;;;-5.55;68.88;101078.34;10462286;28;20059;-78
2021/12/25 20:49:24;;;;;;;4.57;1.83;;;;;;;-5.54;68.61;101075.06;10477321;28;20152;-78
2021/12/25 20:54:26;;;;;;;2.83;1.42;;;;;;;-5.57;67.93;101073.16;10457855;28;20040;-77
2021/12/25 20:59:30;;;;;;;4.80;1.80;;;;;;;-5.62;68.65;101078.50;10470382;28;20032;-77
2021/12/25 21:04:33;;;;;;;3.28;1.40;;;;;;;-5.68;67.88;101076.28;10443688;28;20101;-78
2021/12/25 21:09:35;;;;;;;5.45;1.75;;;;;;;-5.68;68.16;101071.28;10444101;28;20052;-77
2021/12/25 21:14:37;;;;;;;3.28;1.27;;;;;;;-5.66;67.15;101078.94;10477074;28;20048;-77
2021/12/25 21:19:39;;;;;;;3.67;1.67;;;;;;;-5.77;68.62;101072.91;10468934;28;20049;-77
2021/12/25 21:24:40;;;;;;;3.63;1.70;;;;;;;-5.79;67.79;101067.75;10455456;28;20037;-78
2021/12/25 21:29:43;;;;;;;4.15;1.85;;;;;;;-5.86;68.33;101057.88;10464167;28;20037;-78
2021/12/25 21:34:45;;;;;;;4.38;1.83;;;;;;;-5.83;67.91;101054.78;10443817;28;20102;-78
2021/12/25 21:39:46;;;;;;;2.75;1.40;;;;;;;-5.91;67.56;101047.41;10456514;28;20577;-77
2021/12/25 21:44:48;;;;;;;3.88;1.75;;;;;;;-5.87;67.19;101048.59;10462027;28;20052;-77
2021/12/25 21:49:50;;;;;;;4.05;1.75;;;;;;;-5.91;67.83;101041.50;10468389;28;20052;-78
2021/12/25 21:54:52;;;;;;;3.30;1.58;;;;;;;-5.91;66.85;101047.41;10459463;28;20044;-78
2021/12/25 21:59:55;;;;;;;2.70;1.55;;;;;;;-5.90;67.17;101049.19;10479870;28;20080;-77
2021/12/25 22:04:58;;;;;;;3.00;1.30;;;;;;;-5.90;66.29;101045.78;10463350;28;20427;-77
2021/12/25 22:10:03;;;;;;;4.75;1.35;;;;;;;-5.96;66.38;101057.75;10474280;28;20094;-77
2021/12/25 22:15:09;;;;;;;8.32;1.75;;;;;;;-5.99;66.00;101057.47;10473427;28;20044;-77
2021/12/25 22:20:13;;;;;;;6.75;1.48;;;;;;;-6.09;67.49;101051.63;10460722;28;20047;-78
2021/12/25 22:25:17;;;;;;;3.63;1.73;;;;;;;-6.02;66.75;101067.25;10475507;28;20053;-76
2021/12/25 22:30:22;;;;;;;5.63;1.55;;;;;;;-6.08;66.84;101068.44;10459020;28;20045;-79
2021/12/25 22:35:24;;;;;;;4.53;1.48;;;;;;;-6.13;66.63;101054.56;10459238;28;20029;-79
2021/12/25 22:40:28;;;;;;;4.20;1.98;;;;;;;-6.08;66.13;101058.41;10458168;28;20052;-79
2021/12/25 22:45:29;;;;;;;5.40;1.52;;;;;;;-6.00;64.97;101060.75;10463297;28;20136;-80
2021/12/25 22:50:32;;;;;;;3.08;1.42;;;;;;;-6.10;65.67;101059.88;10478524;28;20033;-79
2021/12/25 22:55:34;;;;;;;3.40;1.77;;;;;;;-6.18;67.25;101045.72;10480456;28;20052;-79
2021/12/25 23:00:38;;;;;;;2.58;1.20;;;;;;;-6.02;64.68;101047.19;10458942;28;20048;-79
2021/12/25 23:05:43;;;;;;;3.40;1.80;;;;;;;-6.09;65.21;101026.53;10479403;28;20127;-78
2021/12/25 23:10:51;;;;;;;2.58;1.58;;;;;;;-6.08;65.33;101028.31;10481374;28;20044;-79
2021/12/25 23:15:56;;;;;;;3.97;1.60;;;;;;;-6.05;65.66;101017.69;10481742;28;20040;-78
2021/12/25 23:21:01;;;;;;;2.92;1.65;;;;;;;-6.13;65.69;101014.44;10470066;28;20041;-80
2021/12/25 23:26:05;;;;;;;2.78;1.48;;;;;;;-6.08;64.56;101010.75;10482032;28;20044;-80
2021/12/25 23:31:08;;;;;;;3.03;1.50;;;;;;;-6.11;65.46;101010.44;10462253;28;20107;-80
2021/12/25 23:36:12;;;;;;;3.22;1.63;;;;;;;-6.13;65.04;101009.41;10474113;28;20047;-80
2021/12/25 23:41:15;;;;;;;5.97;1.80;;;;;;;-6.09;64.71;101000.56;10469150;28;20045;-81
2021/12/25 23:46:17;;;;;;;3.83;1.30;;;;;;;-6.10;66.12;100991.25;10457360;28;20044;-80
2021/12/25 23:51:20;;;;;;;5.32;2.00;;;;;;;-6.16;65.76;101001.63;10487363;28;20037;-80
2021/12/25 23:56:22;;;;;;;5.75;1.38;;;;;;;-6.18;66.35;100985.53;10478350;28;20043;-80
